sensor_id;sensor_type;location;lat;lon;timestamp;P1;durP1;ratioP1;P2;durP2;ratioP2
2888;SDS011;1453;42.708;23.282;2022-10-28T00:01:02;25.23;;;16.63;;
2888;SDS011;1453;42.708;23.282;2022-10-28T00:03:30;39.33;;;25.10;;
2888;SDS011;1453;42.708;23.282;2022-10-28T00:16:28;11.40;;;7.90;;
2888;SDS011;1453;42.708;23.282;2022-10-28T00:18:58;8.53;;;6.90;;
2888;SDS011;1453;42.708;23.282;2022-10-28T00:21:26;11.40;;;6.20;;
2888;SDS011;1453;42.708;23.282;2022-10-28T00:23:55;17.97;;;10.50;;
2888;SDS011;1453;42.708;23.282;2022-10-28T00:26:22;15.13;;;8.20;;
2888;SDS011;1453;42.708;23.282;2022-10-28T00:28:52;13.80;;;8.40;;
2888;SDS011;1453;42.708;23.282;2022-10-28T00:31:20;13.70;;;7.43;;
2888;SDS011;1453;42.708;23.282;2022-10-28T00:33:50;12.43;;;7.93;;
2888;SDS011;1453;42.708;23.282;2022-10-28T00:36:17;11.93;;;7.20;;
2888;SDS011;1453;42.708;23.282;2022-10-28T00:38:50;12.53;;;7.50;;
2888;SDS011;1453;42.708;23.282;2022-10-28T00:41:19;11.50;;;7.83;;
2888;SDS011;1453;42.708;23.282;2022-10-28T00:43:58;25.67;;;15.73;;
2888;SDS011;1453;42.708;23.282;2022-10-28T00:46:46;35.00;;;21.87;;
2888;SDS011;1453;42.708;23.282;2022-10-28T00:51:50;18.27;;;12.37;;
2888;SDS011;1453;42.708;23.282;2022-10-28T00:54:21;27.20;;;16.10;;
2888;SDS011;1453;42.708;23.282;2022-10-28T00:56:49;33.17;;;19.60;;
2888;SDS011;1453;42.708;23.282;2022-10-28T00:59:20;29.57;;;18.33;;
2888;SDS011;1453;42.708;23.282;2022-10-28T01:01:50;11.53;;;7.20;;
2888;SDS011;1453;42.708;23.282;2022-10-28T01:04:16;40.57;;;23.93;;
2888;SDS011;1453;42.708;23.282;2022-10-28T01:06:43;16.43;;;11.77;;
2888;SDS011;1453;42.708;23.282;2022-10-28T01:09:11;22.30;;;15.10;;
2888;SDS011;1453;42.708;23.282;2022-10-28T01:17:48;16.00;;;10.93;;
2888;SDS011;1453;42.708;23.282;2022-10-28T01:26:08;43.63;;;25.73;;
2888;SDS011;1453;42.708;23.282;2022-10-28T01:40:45;13.63;;;7.20;;
2888;SDS011;1453;42.708;23.282;2022-10-28T01:43:47;25.70;;;15.33;;
2888;SDS011;1453;42.708;23.282;2022-10-28T01:52:13;27.73;;;16.33;;
2888;SDS011;1453;42.708;23.282;2022-10-28T01:54:47;14.70;;;10.27;;
2888;SDS011;1453;42.708;23.282;2022-10-28T01:57:27;15.93;;;8.90;;
2888;SDS011;1453;42.708;23.282;2022-10-28T01:59:57;8.40;;;6.10;;
2888;SDS011;1453;42.708;23.282;2022-10-28T02:02:24;7.27;;;4.90;;
2888;SDS011;1453;42.708;23.282;2022-10-28T02:04:50;24.00;;;12.97;;
2888;SDS011;1453;42.708;23.282;2022-10-28T02:07:48;23.43;;;15.23;;
2888;SDS011;1453;42.708;23.282;2022-10-28T02:10:20;9.40;;;6.80;;
2888;SDS011;1453;42.708;23.282;2022-10-28T02:12:51;21.43;;;11.93;;
2888;SDS011;1453;42.708;23.282;2022-10-28T02:21:33;13.67;;;9.07;;
2888;SDS011;1453;42.708;23.282;2022-10-28T02:24:11;13.07;;;8.83;;
2888;SDS011;1453;42.708;23.282;2022-10-28T02:26:58;12.90;;;9.60;;
2888;SDS011;1453;42.708;23.282;2022-10-28T02:32:33;12.70;;;8.53;;
2888;SDS011;1453;42.708;23.282;2022-10-28T02:35:05;14.43;;;8.73;;
2888;SDS011;1453;42.708;23.282;2022-10-28T02:37:39;10.53;;;6.97;;
2888;SDS011;1453;42.708;23.282;2022-10-28T02:40:08;12.87;;;7.40;;
2888;SDS011;1453;42.708;23.282;2022-10-28T02:42:43;10.87;;;7.23;;
2888;SDS011;1453;42.708;23.282;2022-10-28T02:45:18;12.50;;;6.57;;
2888;SDS011;1453;42.708;23.282;2022-10-28T02:47:54;10.07;;;6.70;;
2888;SDS011;1453;42.708;23.282;2022-10-28T02:50:38;9.10;;;6.70;;
2888;SDS011;1453;42.708;23.282;2022-10-28T02:53:16;9.53;;;6.43;;
2888;SDS011;1453;42.708;23.282;2022-10-28T02:55:50;12.93;;;6.87;;
2888;SDS011;1453;42.708;23.282;2022-10-28T02:58:19;9.33;;;6.60;;
2888;SDS011;1453;42.708;23.282;2022-10-28T03:00:45;9.37;;;6.60;;
2888;SDS011;1453;42.708;23.282;2022-10-28T03:03:12;10.27;;;6.93;;
2888;SDS011;1453;42.708;23.282;2022-10-28T03:05:38;14.23;;;7.87;;
2888;SDS011;1453;42.708;23.282;2022-10-28T03:08:04;17.60;;;8.67;;
2888;SDS011;1453;42.708;23.282;2022-10-28T03:10:30;10.40;;;7.30;;
2888;SDS011;1453;42.708;23.282;2022-10-28T03:12:55;12.40;;;7.80;;
2888;SDS011;1453;42.708;23.282;2022-10-28T03:15:21;14.30;;;8.90;;
2888;SDS011;1453;42.708;23.282;2022-10-28T03:17:47;13.40;;;7.77;;
2888;SDS011;1453;42.708;23.282;2022-10-28T03:20:13;12.37;;;7.43;;
2888;SDS011;1453;42.708;23.282;2022-10-28T03:22:41;15.33;;;8.50;;
2888;SDS011;1453;42.708;23.282;2022-10-28T03:25:08;10.88;;;7.63;;
2888;SDS011;1453;42.708;23.282;2022-10-28T03:27:34;12.55;;;8.05;;
2888;SDS011;1453;42.708;23.282;2022-10-28T03:30:00;12.10;;;7.37;;
2888;SDS011;1453;42.708;23.282;2022-10-28T03:32:26;16.50;;;7.17;;
2888;SDS011;1453;42.708;23.282;2022-10-28T03:34:51;10.00;;;7.00;;
2888;SDS011;1453;42.708;23.282;2022-10-28T03:37:17;9.30;;;7.47;;
2888;SDS011;1453;42.708;23.282;2022-10-28T03:39:43;8.30;;;6.77;;
2888;SDS011;1453;42.708;23.282;2022-10-28T03:42:09;11.63;;;7.57;;
2888;SDS011;1453;42.708;23.282;2022-10-28T03:44:34;10.13;;;6.70;;
2888;SDS011;1453;42.708;23.282;2022-10-28T03:47:00;11.30;;;6.80;;
2888;SDS011;1453;42.708;23.282;2022-10-28T03:49:26;12.57;;;8.17;;
2888;SDS011;1453;42.708;23.282;2022-10-28T03:51:52;16.00;;;8.20;;
2888;SDS011;1453;42.708;23.282;2022-10-28T03:54:17;11.80;;;8.27;;
2888;SDS011;1453;42.708;23.282;2022-10-28T03:56:43;13.57;;;8.00;;
2888;SDS011;1453;42.708;23.282;2022-10-28T03:59:09;12.07;;;9.00;;
2888;SDS011;1453;42.708;23.282;2022-10-28T04:01:36;13.00;;;7.80;;
2888;SDS011;1453;42.708;23.282;2022-10-28T04:04:01;11.40;;;8.23;;
2888;SDS011;1453;42.708;23.282;2022-10-28T04:06:27;17.17;;;8.67;;
2888;SDS011;1453;42.708;23.282;2022-10-28T04:08:53;40.10;;;9.03;;
2888;SDS011;1453;42.708;23.282;2022-10-28T04:11:19;23.53;;;9.17;;
2888;SDS011;1453;42.708;23.282;2022-10-28T04:13:44;14.20;;;8.90;;
2888;SDS011;1453;42.708;23.282;2022-10-28T04:16:10;26.30;;;11.40;;
2888;SDS011;1453;42.708;23.282;2022-10-28T04:18:36;16.07;;;9.97;;
2888;SDS011;1453;42.708;23.282;2022-10-28T04:21:02;15.83;;;10.37;;
2888;SDS011;1453;42.708;23.282;2022-10-28T04:23:29;16.73;;;10.57;;
2888;SDS011;1453;42.708;23.282;2022-10-28T04:25:55;21.55;;;11.38;;
2888;SDS011;1453;42.708;23.282;2022-10-28T04:28:21;18.57;;;9.60;;
2888;SDS011;1453;42.708;23.282;2022-10-28T04:30:50;15.05;;;9.90;;
2888;SDS011;1453;42.708;23.282;2022-10-28T04:33:15;20.00;;;11.40;;
2888;SDS011;1453;42.708;23.282;2022-10-28T04:35:41;20.37;;;11.03;;
2888;SDS011;1453;42.708;23.282;2022-10-28T04:38:10;21.30;;;10.93;;
2888;SDS011;1453;42.708;23.282;2022-10-28T04:40:38;19.90;;;11.38;;
2888;SDS011;1453;42.708;23.282;2022-10-28T04:43:03;15.40;;;11.03;;
2888;SDS011;1453;42.708;23.282;2022-10-28T04:45:30;15.43;;;10.13;;
2888;SDS011;1453;42.708;23.282;2022-10-28T04:47:57;11.77;;;9.02;;
2888;SDS011;1453;42.708;23.282;2022-10-28T04:50:24;12.48;;;9.40;;
2888;SDS011;1453;42.708;23.282;2022-10-28T04:52:50;15.57;;;9.52;;
2888;SDS011;1453;42.708;23.282;2022-10-28T04:55:16;16.43;;;9.13;;
2888;SDS011;1453;42.708;23.282;2022-10-28T04:57:43;18.33;;;9.38;;
2888;SDS011;1453;42.708;23.282;2022-10-28T05:00:09;14.70;;;8.77;;
2888;SDS011;1453;42.708;23.282;2022-10-28T05:02:35;17.08;;;8.50;;
2888;SDS011;1453;42.708;23.282;2022-10-28T05:05:01;12.85;;;7.97;;
2888;SDS011;1453;42.708;23.282;2022-10-28T05:07:28;15.80;;;8.25;;
2888;SDS011;1453;42.708;23.282;2022-10-28T05:09:54;10.97;;;7.83;;
2888;SDS011;1453;42.708;23.282;2022-10-28T05:12:20;16.20;;;7.63;;
2888;SDS011;1453;42.708;23.282;2022-10-28T05:14:46;14.48;;;8.07;;
2888;SDS011;1453;42.708;23.282;2022-10-28T05:17:11;15.10;;;8.67;;
2888;SDS011;1453;42.708;23.282;2022-10-28T05:19:37;16.63;;;9.17;;
2888;SDS011;1453;42.708;23.282;2022-10-28T05:22:03;21.40;;;9.87;;
2888;SDS011;1453;42.708;23.282;2022-10-28T05:24:29;18.30;;;10.23;;
2888;SDS011;1453;42.708;23.282;2022-10-28T05:26:54;19.83;;;9.77;;
2888;SDS011;1453;42.708;23.282;2022-10-28T05:29:20;21.37;;;9.43;;
2888;SDS011;1453;42.708;23.282;2022-10-28T05:31:46;16.57;;;9.70;;
2888;SDS011;1453;42.708;23.282;2022-10-28T05:34:11;18.93;;;10.87;;
2888;SDS011;1453;42.708;23.282;2022-10-28T05:36:37;20.87;;;10.67;;
2888;SDS011;1453;42.708;23.282;2022-10-28T05:39:03;21.60;;;11.37;;
2888;SDS011;1453;42.708;23.282;2022-10-28T05:41:29;21.02;;;12.00;;
2888;SDS011;1453;42.708;23.282;2022-10-28T05:43:55;21.83;;;11.70;;
2888;SDS011;1453;42.708;23.282;2022-10-28T05:46:21;27.23;;;13.30;;
2888;SDS011;1453;42.708;23.282;2022-10-28T05:48:47;28.93;;;16.30;;
2888;SDS011;1453;42.708;23.282;2022-10-28T05:51:13;23.20;;;14.30;;
2888;SDS011;1453;42.708;23.282;2022-10-28T05:53:39;26.17;;;13.47;;
2888;SDS011;1453;42.708;23.282;2022-10-28T05:56:06;30.33;;;13.73;;
2888;SDS011;1453;42.708;23.282;2022-10-28T05:58:33;26.30;;;13.80;;
2888;SDS011;1453;42.708;23.282;2022-10-28T06:00:58;23.20;;;13.47;;
2888;SDS011;1453;42.708;23.282;2022-10-28T06:03:24;35.57;;;14.57;;
2888;SDS011;1453;42.708;23.282;2022-10-28T06:05:50;32.20;;;15.03;;
2888;SDS011;1453;42.708;23.282;2022-10-28T06:08:16;20.83;;;13.60;;
2888;SDS011;1453;42.708;23.282;2022-10-28T06:10:48;33.07;;;14.00;;
2888;SDS011;1453;42.708;23.282;2022-10-28T06:13:15;21.33;;;12.80;;
2888;SDS011;1453;42.708;23.282;2022-10-28T06:15:41;24.53;;;14.20;;
2888;SDS011;1453;42.708;23.282;2022-10-28T06:18:07;31.57;;;14.83;;
2888;SDS011;1453;42.708;23.282;2022-10-28T06:20:33;28.13;;;13.20;;
2888;SDS011;1453;42.708;23.282;2022-10-28T06:22:59;20.43;;;12.57;;
2888;SDS011;1453;42.708;23.282;2022-10-28T06:25:25;21.23;;;14.03;;
2888;SDS011;1453;42.708;23.282;2022-10-28T06:27:55;24.20;;;13.00;;
2888;SDS011;1453;42.708;23.282;2022-10-28T06:30:22;26.53;;;15.00;;
2888;SDS011;1453;42.708;23.282;2022-10-28T06:32:52;18.00;;;11.70;;
2888;SDS011;1453;42.708;23.282;2022-10-28T06:35:21;28.40;;;13.10;;
2888;SDS011;1453;42.708;23.282;2022-10-28T06:37:47;17.57;;;12.60;;
2888;SDS011;1453;42.708;23.282;2022-10-28T06:40:12;17.00;;;12.30;;
2888;SDS011;1453;42.708;23.282;2022-10-28T06:42:38;19.07;;;13.13;;
2888;SDS011;1453;42.708;23.282;2022-10-28T06:45:04;17.90;;;13.27;;
2888;SDS011;1453;42.708;23.282;2022-10-28T06:47:31;24.87;;;12.57;;
2888;SDS011;1453;42.708;23.282;2022-10-28T06:49:56;18.27;;;12.60;;
2888;SDS011;1453;42.708;23.282;2022-10-28T06:52:22;18.83;;;12.87;;
2888;SDS011;1453;42.708;23.282;2022-10-28T06:54:48;19.20;;;14.00;;
2888;SDS011;1453;42.708;23.282;2022-10-28T06:57:14;21.43;;;14.13;;
2888;SDS011;1453;42.708;23.282;2022-10-28T06:59:39;19.73;;;13.50;;
2888;SDS011;1453;42.708;23.282;2022-10-28T07:02:08;25.00;;;14.30;;
2888;SDS011;1453;42.708;23.282;2022-10-28T07:04:35;26.23;;;15.90;;
2888;SDS011;1453;42.708;23.282;2022-10-28T07:07:02;25.33;;;15.70;;
2888;SDS011;1453;42.708;23.282;2022-10-28T07:09:28;18.53;;;14.17;;
2888;SDS011;1453;42.708;23.282;2022-10-28T07:11:53;21.10;;;15.30;;
2888;SDS011;1453;42.708;23.282;2022-10-28T07:14:19;21.17;;;13.57;;
2888;SDS011;1453;42.708;23.282;2022-10-28T07:16:45;21.17;;;13.10;;
2888;SDS011;1453;42.708;23.282;2022-10-28T07:19:11;21.13;;;14.60;;
2888;SDS011;1453;42.708;23.282;2022-10-28T07:21:36;22.97;;;14.03;;
2888;SDS011;1453;42.708;23.282;2022-10-28T07:24:02;19.73;;;14.47;;
2888;SDS011;1453;42.708;23.282;2022-10-28T07:26:28;24.60;;;14.70;;
2888;SDS011;1453;42.708;23.282;2022-10-28T07:28:54;16.47;;;14.73;;
2888;SDS011;1453;42.708;23.282;2022-10-28T07:31:20;24.00;;;13.90;;
2888;SDS011;1453;42.708;23.282;2022-10-28T07:33:52;20.93;;;14.07;;
2888;SDS011;1453;42.708;23.282;2022-10-28T07:36:18;23.90;;;14.80;;
2888;SDS011;1453;42.708;23.282;2022-10-28T07:38:49;20.90;;;14.67;;
2888;SDS011;1453;42.708;23.282;2022-10-28T07:41:17;18.67;;;14.20;;
2888;SDS011;1453;42.708;23.282;2022-10-28T07:43:45;21.80;;;15.23;;
2888;SDS011;1453;42.708;23.282;2022-10-28T07:46:11;18.83;;;13.33;;
2888;SDS011;1453;42.708;23.282;2022-10-28T07:48:37;22.83;;;14.00;;
2888;SDS011;1453;42.708;23.282;2022-10-28T07:51:04;20.93;;;13.33;;
2888;SDS011;1453;42.708;23.282;2022-10-28T07:53:31;19.90;;;13.90;;
2888;SDS011;1453;42.708;23.282;2022-10-28T07:55:59;17.77;;;12.23;;
2888;SDS011;1453;42.708;23.282;2022-10-28T07:58:33;17.23;;;10.63;;
2888;SDS011;1453;42.708;23.282;2022-10-28T08:01:03;12.13;;;8.73;;
2888;SDS011;1453;42.708;23.282;2022-10-28T08:03:32;13.53;;;10.70;;
2888;SDS011;1453;42.708;23.282;2022-10-28T08:06:06;16.90;;;11.77;;
2888;SDS011;1453;42.708;23.282;2022-10-28T08:08:42;15.00;;;11.60;;
2888;SDS011;1453;42.708;23.282;2022-10-28T08:11:11;15.23;;;12.40;;
2888;SDS011;1453;42.708;23.282;2022-10-28T08:13:43;21.03;;;16.30;;
2888;SDS011;1453;42.708;23.282;2022-10-28T08:16:09;21.67;;;15.20;;
2888;SDS011;1453;42.708;23.282;2022-10-28T08:18:36;22.13;;;14.50;;
2888;SDS011;1453;42.708;23.282;2022-10-28T08:21:03;21.23;;;14.30;;
2888;SDS011;1453;42.708;23.282;2022-10-28T08:23:32;21.30;;;14.73;;
2888;SDS011;1453;42.708;23.282;2022-10-28T08:25:58;22.57;;;14.80;;
2888;SDS011;1453;42.708;23.282;2022-10-28T08:28:24;28.00;;;15.10;;
2888;SDS011;1453;42.708;23.282;2022-10-28T08:30:50;21.33;;;14.47;;
2888;SDS011;1453;42.708;23.282;2022-10-28T08:33:16;20.60;;;15.23;;
2888;SDS011;1453;42.708;23.282;2022-10-28T08:35:42;19.27;;;13.97;;
2888;SDS011;1453;42.708;23.282;2022-10-28T08:38:13;21.03;;;13.83;;
2888;SDS011;1453;42.708;23.282;2022-10-28T08:44:07;27.03;;;15.13;;
2888;SDS011;1453;42.708;23.282;2022-10-28T08:50:12;22.83;;;14.47;;
2888;SDS011;1453;42.708;23.282;2022-10-28T08:55:25;22.00;;;14.60;;
2888;SDS011;1453;42.708;23.282;2022-10-28T09:00:45;16.87;;;12.53;;
2888;SDS011;1453;42.708;23.282;2022-10-28T09:06:06;16.40;;;12.83;;
2888;SDS011;1453;42.708;23.282;2022-10-28T09:08:34;17.73;;;13.03;;
2888;SDS011;1453;42.708;23.282;2022-10-28T09:16:47;19.10;;;11.50;;
2888;SDS011;1453;42.708;23.282;2022-10-28T09:25:29;18.00;;;12.17;;
2888;SDS011;1453;42.708;23.282;2022-10-28T09:31:16;25.17;;;13.30;;
2888;SDS011;1453;42.708;23.282;2022-10-28T09:36:29;19.90;;;12.73;;
2888;SDS011;1453;42.708;23.282;2022-10-28T09:39:00;16.03;;;12.33;;
2888;SDS011;1453;42.708;23.282;2022-10-28T09:41:33;15.67;;;11.03;;
2888;SDS011;1453;42.708;23.282;2022-10-28T09:46:47;13.97;;;11.47;;
2888;SDS011;1453;42.708;23.282;2022-10-28T09:49:24;20.40;;;11.23;;
2888;SDS011;1453;42.708;23.282;2022-10-28T09:52:03;14.80;;;10.13;;
2888;SDS011;1453;42.708;23.282;2022-10-28T09:54:33;11.20;;;9.47;;
2888;SDS011;1453;42.708;23.282;2022-10-28T09:57:03;13.97;;;8.70;;
2888;SDS011;1453;42.708;23.282;2022-10-28T09:59:29;11.10;;;8.30;;
2888;SDS011;1453;42.708;23.282;2022-10-28T10:01:55;12.00;;;8.30;;
2888;SDS011;1453;42.708;23.282;2022-10-28T10:04:22;10.07;;;8.50;;
2888;SDS011;1453;42.708;23.282;2022-10-28T10:06:56;14.00;;;9.40;;
2888;SDS011;1453;42.708;23.282;2022-10-28T10:09:56;12.67;;;8.37;;
2888;SDS011;1453;42.708;23.282;2022-10-28T10:12:24;17.60;;;9.77;;
2888;SDS011;1453;42.708;23.282;2022-10-28T10:14:51;12.00;;;8.60;;
2888;SDS011;1453;42.708;23.282;2022-10-28T10:17:21;10.40;;;8.10;;
2888;SDS011;1453;42.708;23.282;2022-10-28T10:20:13;9.30;;;6.57;;
2888;SDS011;1453;42.708;23.282;2022-10-28T10:22:43;10.00;;;7.23;;
2888;SDS011;1453;42.708;23.282;2022-10-28T10:27:54;12.77;;;8.20;;
2888;SDS011;1453;42.708;23.282;2022-10-28T10:30:48;13.03;;;8.20;;
2888;SDS011;1453;42.708;23.282;2022-10-28T10:33:22;9.30;;;8.03;;
2888;SDS011;1453;42.708;23.282;2022-10-28T10:35:58;11.27;;;7.30;;
2888;SDS011;1453;42.708;23.282;2022-10-28T10:38:34;9.53;;;6.23;;
2888;SDS011;1453;42.708;23.282;2022-10-28T10:41:02;8.20;;;6.20;;
2888;SDS011;1453;42.708;23.282;2022-10-28T10:43:32;6.83;;;6.03;;
2888;SDS011;1453;42.708;23.282;2022-10-28T10:48:32;11.57;;;6.40;;
2888;SDS011;1453;42.708;23.282;2022-10-28T10:51:06;8.50;;;5.70;;
2888;SDS011;1453;42.708;23.282;2022-10-28T10:53:40;11.23;;;6.83;;
2888;SDS011;1453;42.708;23.282;2022-10-28T10:56:11;6.77;;;5.90;;
2888;SDS011;1453;42.708;23.282;2022-10-28T10:58:48;12.27;;;6.60;;
2888;SDS011;1453;42.708;23.282;2022-10-28T11:01:20;9.30;;;6.50;;
2888;SDS011;1453;42.708;23.282;2022-10-28T11:06:25;17.00;;;6.40;;
2888;SDS011;1453;42.708;23.282;2022-10-28T11:09:17;8.70;;;5.73;;
2888;SDS011;1453;42.708;23.282;2022-10-28T11:11:47;7.37;;;5.93;;
2888;SDS011;1453;42.708;23.282;2022-10-28T11:16:48;9.47;;;4.87;;
2888;SDS011;1453;42.708;23.282;2022-10-28T11:19:35;6.20;;;5.17;;
2888;SDS011;1453;42.708;23.282;2022-10-28T11:24:54;7.03;;;4.70;;
2888;SDS011;1453;42.708;23.282;2022-10-28T11:33:49;5.20;;;4.70;;
2888;SDS011;1453;42.708;23.282;2022-10-28T11:47:30;4.90;;;4.23;;
2888;SDS011;1453;42.708;23.282;2022-10-28T11:56:52;4.97;;;4.43;;
2888;SDS011;1453;42.708;23.282;2022-10-28T12:05:27;6.13;;;5.23;;
2888;SDS011;1453;42.708;23.282;2022-10-28T12:17:27;5.43;;;4.40;;
2888;SDS011;1453;42.708;23.282;2022-10-28T12:20:04;7.10;;;5.40;;
2888;SDS011;1453;42.708;23.282;2022-10-28T12:22:43;5.67;;;5.07;;
2888;SDS011;1453;42.708;23.282;2022-10-28T12:25:16;5.83;;;4.47;;
2888;SDS011;1453;42.708;23.282;2022-10-28T12:27:48;5.23;;;4.73;;
2888;SDS011;1453;42.708;23.282;2022-10-28T12:30:20;5.60;;;4.93;;
2888;SDS011;1453;42.708;23.282;2022-10-28T12:32:54;15.70;;;14.03;;
2888;SDS011;1453;42.708;23.282;2022-10-28T12:35:32;6.50;;;4.60;;
2888;SDS011;1453;42.708;23.282;2022-10-28T12:40:54;5.73;;;5.10;;
2888;SDS011;1453;42.708;23.282;2022-10-28T12:43:30;6.87;;;4.60;;
2888;SDS011;1453;42.708;23.282;2022-10-28T12:46:17;5.77;;;4.83;;
2888;SDS011;1453;42.708;23.282;2022-10-28T12:48:49;6.37;;;4.87;;
2888;SDS011;1453;42.708;23.282;2022-10-28T12:51:22;5.83;;;4.83;;
2888;SDS011;1453;42.708;23.282;2022-10-28T12:57:00;8.30;;;7.00;;
2888;SDS011;1453;42.708;23.282;2022-10-28T12:59:42;11.93;;;10.03;;
2888;SDS011;1453;42.708;23.282;2022-10-28T13:02:15;8.17;;;5.30;;
2888;SDS011;1453;42.708;23.282;2022-10-28T13:04:48;8.20;;;4.63;;
2888;SDS011;1453;42.708;23.282;2022-10-28T13:15:55;7.33;;;4.70;;
2888;SDS011;1453;42.708;23.282;2022-10-28T13:19:09;7.97;;;4.90;;
2888;SDS011;1453;42.708;23.282;2022-10-28T13:24:54;6.67;;;5.50;;
2888;SDS011;1453;42.708;23.282;2022-10-28T13:27:44;9.50;;;5.37;;
2888;SDS011;1453;42.708;23.282;2022-10-28T13:30:17;10.57;;;6.60;;
2888;SDS011;1453;42.708;23.282;2022-10-28T13:32:46;7.53;;;5.07;;
2888;SDS011;1453;42.708;23.282;2022-10-28T13:35:39;11.53;;;10.27;;
2888;SDS011;1453;42.708;23.282;2022-10-28T13:38:10;5.53;;;4.97;;
2888;SDS011;1453;42.708;23.282;2022-10-28T13:43:03;9.27;;;5.30;;
2888;SDS011;1453;42.708;23.282;2022-10-28T13:56:17;6.40;;;5.37;;
2888;SDS011;1453;42.708;23.282;2022-10-28T13:58:53;6.50;;;5.13;;
2888;SDS011;1453;42.708;23.282;2022-10-28T14:09:35;13.90;;;10.30;;
2888;SDS011;1453;42.708;23.282;2022-10-28T14:12:03;8.60;;;4.70;;
2888;SDS011;1453;42.708;23.282;2022-10-28T14:14:47;10.60;;;8.20;;
2888;SDS011;1453;42.708;23.282;2022-10-28T14:17:26;8.50;;;5.03;;
2888;SDS011;1453;42.708;23.282;2022-10-28T14:19:59;7.57;;;5.43;;
2888;SDS011;1453;42.708;23.282;2022-10-28T14:22:31;5.37;;;3.87;;
2888;SDS011;1453;42.708;23.282;2022-10-28T14:25:00;5.00;;;4.50;;
2888;SDS011;1453;42.708;23.282;2022-10-28T14:27:38;6.10;;;3.87;;
2888;SDS011;1453;42.708;23.282;2022-10-28T14:30:12;6.47;;;5.53;;
2888;SDS011;1453;42.708;23.282;2022-10-28T14:32:42;4.07;;;3.63;;
2888;SDS011;1453;42.708;23.282;2022-10-28T14:44:19;5.50;;;4.80;;
2888;SDS011;1453;42.708;23.282;2022-10-28T14:55:55;8.10;;;5.00;;
2888;SDS011;1453;42.708;23.282;2022-10-28T14:58:43;10.37;;;8.03;;
2888;SDS011;1453;42.708;23.282;2022-10-28T15:03:41;16.63;;;14.60;;
2888;SDS011;1453;42.708;23.282;2022-10-28T15:06:33;10.33;;;7.17;;
2888;SDS011;1453;42.708;23.282;2022-10-28T15:11:55;8.17;;;6.00;;
2888;SDS011;1453;42.708;23.282;2022-10-28T15:16:55;6.60;;;5.00;;
2888;SDS011;1453;42.708;23.282;2022-10-28T15:19:23;5.20;;;4.67;;
2888;SDS011;1453;42.708;23.282;2022-10-28T15:24:28;8.40;;;5.13;;
2888;SDS011;1453;42.708;23.282;2022-10-28T15:26:54;7.67;;;5.53;;
2888;SDS011;1453;42.708;23.282;2022-10-28T15:29:21;9.80;;;5.63;;
2888;SDS011;1453;42.708;23.282;2022-10-28T15:32:09;10.63;;;6.80;;
2888;SDS011;1453;42.708;23.282;2022-10-28T15:34:40;23.50;;;15.13;;
2888;SDS011;1453;42.708;23.282;2022-10-28T15:37:06;9.10;;;6.90;;
2888;SDS011;1453;42.708;23.282;2022-10-28T15:39:33;18.87;;;13.83;;
2888;SDS011;1453;42.708;23.282;2022-10-28T15:41:59;18.47;;;10.57;;
2888;SDS011;1453;42.708;23.282;2022-10-28T15:44:35;20.00;;;9.80;;
2888;SDS011;1453;42.708;23.282;2022-10-28T15:49:59;16.27;;;7.80;;
2888;SDS011;1453;42.708;23.282;2022-10-28T15:52:39;19.27;;;12.70;;
2888;SDS011;1453;42.708;23.282;2022-10-28T15:58:02;13.40;;;7.37;;
2888;SDS011;1453;42.708;23.282;2022-10-28T16:00:34;22.30;;;9.60;;
2888;SDS011;1453;42.708;23.282;2022-10-28T16:04:00;11.80;;;8.20;;
2888;SDS011;1453;42.708;23.282;2022-10-28T16:09:06;12.47;;;7.00;;
2888;SDS011;1453;42.708;23.282;2022-10-28T16:11:46;34.97;;;21.47;;
2888;SDS011;1453;42.708;23.282;2022-10-28T16:14:22;17.03;;;7.17;;
2888;SDS011;1453;42.708;23.282;2022-10-28T16:17:25;19.40;;;14.23;;
2888;SDS011;1453;42.708;23.282;2022-10-28T16:19:56;16.20;;;7.57;;
2888;SDS011;1453;42.708;23.282;2022-10-28T16:22:29;14.93;;;5.50;;
2888;SDS011;1453;42.708;23.282;2022-10-28T16:24:58;11.37;;;6.30;;
2888;SDS011;1453;42.708;23.282;2022-10-28T16:27:29;13.77;;;5.17;;
2888;SDS011;1453;42.708;23.282;2022-10-28T16:29:56;11.43;;;7.47;;
2888;SDS011;1453;42.708;23.282;2022-10-28T16:32:35;11.80;;;6.47;;
2888;SDS011;1453;42.708;23.282;2022-10-28T16:35:14;8.53;;;5.33;;
2888;SDS011;1453;42.708;23.282;2022-10-28T16:37:46;8.90;;;5.40;;
2888;SDS011;1453;42.708;23.282;2022-10-28T16:40:13;9.77;;;4.77;;
2888;SDS011;1453;42.708;23.282;2022-10-28T16:42:39;11.43;;;6.57;;
2888;SDS011;1453;42.708;23.282;2022-10-28T16:45:08;9.67;;;4.90;;
2888;SDS011;1453;42.708;23.282;2022-10-28T16:47:38;10.20;;;6.40;;
2888;SDS011;1453;42.708;23.282;2022-10-28T16:50:04;10.27;;;4.70;;
2888;SDS011;1453;42.708;23.282;2022-10-28T16:52:30;12.03;;;6.30;;
2888;SDS011;1453;42.708;23.282;2022-10-28T16:54:57;8.63;;;5.10;;
2888;SDS011;1453;42.708;23.282;2022-10-28T16:57:24;10.47;;;5.70;;
2888;SDS011;1453;42.708;23.282;2022-10-28T16:59:50;7.73;;;5.23;;
2888;SDS011;1453;42.708;23.282;2022-10-28T17:02:27;101.07;;;61.60;;
2888;SDS011;1453;42.708;23.282;2022-10-28T17:04:55;69.30;;;48.03;;
2888;SDS011;1453;42.708;23.282;2022-10-28T17:07:22;64.03;;;38.50;;
2888;SDS011;1453;42.708;23.282;2022-10-28T17:09:49;44.87;;;25.87;;
2888;SDS011;1453;42.708;23.282;2022-10-28T17:12:18;38.90;;;22.47;;
2888;SDS011;1453;42.708;23.282;2022-10-28T17:14:46;40.40;;;23.13;;
2888;SDS011;1453;42.708;23.282;2022-10-28T17:17:13;29.40;;;16.30;;
2888;SDS011;1453;42.708;23.282;2022-10-28T17:19:39;45.80;;;30.50;;
2888;SDS011;1453;42.708;23.282;2022-10-28T17:22:05;29.43;;;15.50;;
2888;SDS011;1453;42.708;23.282;2022-10-28T17:24:32;10.50;;;6.50;;
2888;SDS011;1453;42.708;23.282;2022-10-28T17:26:58;23.87;;;12.70;;
2888;SDS011;1453;42.708;23.282;2022-10-28T17:29:25;37.00;;;21.30;;
2888;SDS011;1453;42.708;23.282;2022-10-28T17:31:51;24.80;;;15.50;;
2888;SDS011;1453;42.708;23.282;2022-10-28T17:34:17;33.77;;;18.93;;
2888;SDS011;1453;42.708;23.282;2022-10-28T17:36:43;16.50;;;8.17;;
2888;SDS011;1453;42.708;23.282;2022-10-28T17:39:08;28.70;;;16.10;;
2888;SDS011;1453;42.708;23.282;2022-10-28T17:41:34;16.43;;;9.20;;
2888;SDS011;1453;42.708;23.282;2022-10-28T17:44:00;23.83;;;13.17;;
2888;SDS011;1453;42.708;23.282;2022-10-28T17:46:26;22.83;;;14.23;;
2888;SDS011;1453;42.708;23.282;2022-10-28T17:48:52;21.10;;;13.50;;
2888;SDS011;1453;42.708;23.282;2022-10-28T17:51:18;20.27;;;11.80;;
2888;SDS011;1453;42.708;23.282;2022-10-28T17:53:46;22.37;;;12.23;;
2888;SDS011;1453;42.708;23.282;2022-10-28T17:56:20;21.23;;;12.30;;
2888;SDS011;1453;42.708;23.282;2022-10-28T17:58:46;39.57;;;19.30;;
2888;SDS011;1453;42.708;23.282;2022-10-28T18:01:12;25.80;;;11.47;;
2888;SDS011;1453;42.708;23.282;2022-10-28T18:03:38;18.63;;;8.97;;
2888;SDS011;1453;42.708;23.282;2022-10-28T18:06:05;14.13;;;8.60;;
2888;SDS011;1453;42.708;23.282;2022-10-28T18:08:41;18.93;;;9.30;;
2888;SDS011;1453;42.708;23.282;2022-10-28T18:11:09;12.07;;;8.83;;
2888;SDS011;1453;42.708;23.282;2022-10-28T18:13:38;33.77;;;20.73;;
2888;SDS011;1453;42.708;23.282;2022-10-28T18:16:09;24.47;;;17.57;;
2888;SDS011;1453;42.708;23.282;2022-10-28T18:18:44;23.07;;;16.10;;
2888;SDS011;1453;42.708;23.282;2022-10-28T18:21:10;49.90;;;26.73;;
2888;SDS011;1453;42.708;23.282;2022-10-28T18:23:36;26.23;;;13.17;;
2888;SDS011;1453;42.708;23.282;2022-10-28T18:28:35;30.30;;;19.27;;
2888;SDS011;1453;42.708;23.282;2022-10-28T18:31:05;27.10;;;17.33;;
2888;SDS011;1453;42.708;23.282;2022-10-28T18:33:37;50.90;;;34.80;;
2888;SDS011;1453;42.708;23.282;2022-10-28T18:36:04;73.77;;;45.90;;
2888;SDS011;1453;42.708;23.282;2022-10-28T18:38:34;67.70;;;37.67;;
2888;SDS011;1453;42.708;23.282;2022-10-28T18:41:00;51.70;;;32.70;;